createdAt,value
2022-12-31T00:00:17.344Z,100.00
2022-12-31T00:02:46.083Z,100.00
2022-12-31T00:05:14.816Z,100.00
2022-12-31T00:07:43.520Z,100.00
2022-12-31T00:10:12.275Z,100.00
2022-12-31T00:12:41.143Z,100.00
2022-12-31T00:15:10.633Z,100.00
2022-12-31T00:17:41.329Z,100.00
2022-12-31T00:20:15.194Z,100.00
2022-12-31T00:22:44.069Z,100.00
2022-12-31T00:25:12.790Z,100.00
2022-12-31T00:27:41.480Z,100.00
2022-12-31T00:30:13.092Z,100.00
2022-12-31T00:32:43.705Z,100.00
2022-12-31T00:35:12.352Z,100.00
2022-12-31T00:37:41.032Z,100.00
2022-12-31T00:40:13.809Z,100.00
2022-12-31T00:42:42.446Z,100.00
2022-12-31T00:45:12.453Z,100.00
2022-12-31T00:47:42.999Z,100.00
2022-12-31T00:50:11.937Z,100.00
2022-12-31T00:52:40.543Z,100.00
2022-12-31T00:55:10.580Z,100.00
2022-12-31T00:57:39.202Z,100.00
2022-12-31T01:00:10.909Z,100.00
2022-12-31T01:02:39.753Z,100.00
2022-12-31T01:05:11.239Z,100.00
2022-12-31T01:07:40.042Z,100.00
2022-12-31T01:10:10.253Z,100.00
2022-12-31T01:12:38.894Z,100.00
2022-12-31T01:15:09.249Z,100.00
2022-12-31T01:17:43.878Z,100.00
2022-12-31T01:20:14.656Z,100.00
2022-12-31T01:22:43.308Z,100.00
2022-12-31T01:25:11.960Z,100.00
2022-12-31T01:27:40.535Z,100.00
2022-12-31T01:30:11.473Z,100.00
2022-12-31T01:32:40.141Z,100.00
2022-12-31T01:35:10.186Z,100.00
2022-12-31T01:37:40.753Z,100.00
2022-12-31T01:40:10.710Z,100.00
2022-12-31T01:42:39.462Z,100.00
2022-12-31T01:45:13.982Z,100.00
2022-12-31T01:47:46.998Z,100.00
2022-12-31T01:50:22.917Z,100.00
2022-12-31T01:53:00.515Z,100.00
2022-12-31T01:55:34.245Z,100.00
2022-12-31T01:58:07.968Z,100.00
2022-12-31T02:00:36.975Z,100.00
2022-12-31T02:03:07.162Z,100.00
2022-12-31T02:05:40.991Z,100.00
2022-12-31T02:08:12.282Z,100.00
2022-12-31T02:10:41.211Z,100.00
2022-12-31T02:13:10.117Z,100.00
2022-12-31T02:15:49.366Z,100.00
2022-12-31T02:18:31.894Z,100.00
2022-12-31T02:21:32.242Z,100.00
2022-12-31T02:24:54.866Z,100.00
2022-12-31T02:27:41.346Z,100.00
2022-12-31T02:30:23.138Z,100.00
2022-12-31T02:33:11.544Z,100.00
2022-12-31T02:35:50.233Z,100.00
2022-12-31T02:38:32.000Z,100.00
2022-12-31T02:41:01.687Z,100.00
2022-12-31T02:43:30.645Z,100.00
2022-12-31T02:46:14.657Z,100.00
2022-12-31T02:48:55.591Z,100.00
2022-12-31T02:51:36.497Z,100.00
2022-12-31T02:54:20.805Z,100.00
2022-12-31T02:57:05.213Z,100.00
2022-12-31T02:59:53.650Z,100.00
2022-12-31T03:02:29.582Z,100.00
2022-12-31T03:05:02.514Z,100.00
2022-12-31T03:07:34.237Z,100.00
2022-12-31T03:10:03.546Z,100.00
2022-12-31T03:12:46.143Z,100.00
2022-12-31T03:15:21.778Z,100.00
2022-12-31T03:17:57.988Z,100.00
2022-12-31T03:20:43.792Z,100.00
2022-12-31T03:23:16.372Z,100.00
2022-12-31T03:25:44.314Z,100.00
2022-12-31T03:28:19.406Z,100.00
2022-12-31T03:30:51.044Z,100.00
2022-12-31T03:33:24.411Z,100.00
2022-12-31T03:35:54.823Z,100.00
2022-12-31T03:38:23.786Z,100.00
2022-12-31T03:40:54.939Z,100.00
2022-12-31T03:43:23.572Z,100.00
2022-12-31T03:45:54.237Z,100.00
2022-12-31T03:48:25.452Z,100.00
2022-12-31T03:50:54.321Z,100.00
2022-12-31T03:53:23.004Z,100.00
2022-12-31T03:55:53.408Z,100.00
2022-12-31T03:58:22.854Z,100.00
2022-12-31T04:00:52.192Z,100.00
2022-12-31T04:03:20.951Z,100.00
2022-12-31T04:05:56.548Z,100.00
2022-12-31T04:08:25.384Z,100.00
2022-12-31T04:10:54.037Z,100.00
2022-12-31T04:13:22.629Z,100.00
2022-12-31T04:15:52.528Z,100.00
2022-12-31T04:18:21.143Z,100.00
2022-12-31T04:20:50.126Z,100.00
2022-12-31T04:23:20.751Z,100.00
2022-12-31T04:25:49.418Z,100.00
2022-12-31T04:28:20.073Z,100.00
2022-12-31T04:30:48.785Z,100.00
2022-12-31T04:33:17.373Z,100.00
2022-12-31T04:35:46.083Z,100.00
2022-12-31T04:38:14.712Z,100.00
2022-12-31T04:40:59.891Z,100.00
2022-12-31T04:43:28.550Z,100.00
2022-12-31T04:45:57.162Z,100.00
2022-12-31T04:48:25.918Z,100.00
2022-12-31T04:50:54.648Z,100.00
2022-12-31T04:53:23.964Z,100.00
2022-12-31T04:56:00.710Z,100.00
2022-12-31T04:58:29.402Z,100.00
2022-12-31T05:00:58.154Z,100.00
2022-12-31T05:03:28.262Z,100.00
2022-12-31T05:06:03.413Z,100.00
2022-12-31T05:08:32.759Z,100.00
2022-12-31T05:11:03.410Z,100.00
2022-12-31T05:13:33.573Z,100.00
2022-12-31T05:16:02.763Z,100.00
2022-12-31T05:18:32.513Z,100.00
2022-12-31T05:21:01.502Z,100.00
2022-12-31T05:23:30.665Z,100.00
2022-12-31T05:25:59.785Z,100.00
2022-12-31T05:28:31.962Z,100.00
2022-12-31T05:31:00.914Z,100.00
2022-12-31T05:33:29.543Z,100.00
2022-12-31T05:35:59.491Z,100.00
2022-12-31T05:38:28.376Z,100.00
2022-12-31T05:41:09.301Z,100.00
2022-12-31T05:43:39.819Z,100.00
2022-12-31T05:46:08.703Z,100.00
2022-12-31T05:48:37.350Z,100.00
2022-12-31T05:51:06.688Z,100.00
2022-12-31T05:53:35.359Z,100.00
2022-12-31T05:56:03.971Z,100.00
2022-12-31T05:58:32.750Z,100.00
2022-12-31T06:01:03.420Z,100.00
2022-12-31T06:03:32.320Z,100.00
2022-12-31T06:06:03.079Z,100.00
2022-12-31T06:08:31.754Z,100.00
2022-12-31T06:11:00.485Z,100.00
2022-12-31T06:13:29.184Z,100.00
2022-12-31T06:15:57.895Z,100.00
2022-12-31T06:18:28.432Z,100.00
2022-12-31T06:21:00.057Z,100.00
2022-12-31T06:23:29.025Z,100.00
2022-12-31T06:25:57.699Z,100.00
2022-12-31T06:28:26.385Z,100.00
2022-12-31T06:31:01.270Z,100.00
2022-12-31T06:33:32.667Z,100.00
2022-12-31T06:36:03.430Z,100.00
2022-12-31T06:38:34.572Z,100.00
2022-12-31T06:41:05.223Z,100.00
2022-12-31T06:43:34.330Z,100.00
2022-12-31T06:46:03.658Z,100.00
2022-12-31T06:48:34.673Z,100.00
2022-12-31T06:51:06.156Z,100.00
2022-12-31T06:53:35.358Z,100.00
2022-12-31T06:56:08.425Z,100.00
2022-12-31T06:58:38.233Z,100.00
2022-12-31T07:01:30.475Z,100.00
2022-12-31T07:04:21.381Z,100.00
2022-12-31T07:06:57.947Z,100.00
2022-12-31T07:09:35.820Z,100.00
2022-12-31T07:12:13.047Z,100.00
2022-12-31T07:14:47.874Z,100.00
2022-12-31T07:17:29.381Z,100.00
2022-12-31T07:20:06.713Z,100.00
2022-12-31T07:22:36.489Z,100.00
2022-12-31T07:25:07.994Z,100.00
2022-12-31T07:27:57.581Z,100.00
2022-12-31T07:30:37.441Z,100.00
2022-12-31T07:33:34.364Z,100.00
2022-12-31T07:36:20.617Z,100.00
2022-12-31T07:38:55.615Z,100.00
2022-12-31T07:41:44.185Z,100.00
2022-12-31T07:44:36.720Z,100.00
2022-12-31T07:47:13.333Z,100.00
2022-12-31T07:49:44.564Z,100.00
2022-12-31T07:52:16.646Z,100.00
2022-12-31T07:54:45.664Z,100.00
2022-12-31T07:57:16.483Z,100.00
2022-12-31T08:00:05.540Z,100.00
2022-12-31T08:03:10.519Z,100.00
2022-12-31T08:05:51.383Z,100.00
2022-12-31T08:08:36.453Z,100.00
2022-12-31T08:11:15.883Z,100.00
2022-12-31T08:13:45.329Z,100.00
2022-12-31T08:16:16.033Z,100.00
2022-12-31T08:18:45.447Z,100.00
2022-12-31T08:21:29.550Z,100.00
2022-12-31T08:24:15.336Z,100.00
2022-12-31T08:26:57.887Z,100.00
2022-12-31T08:29:37.228Z,100.00
2022-12-31T08:32:14.205Z,100.00
2022-12-31T08:34:53.051Z,100.00
2022-12-31T08:37:32.840Z,100.00
2022-12-31T08:40:21.176Z,100.00
2022-12-31T08:43:17.564Z,100.00
2022-12-31T08:45:51.114Z,100.00
2022-12-31T08:48:31.783Z,100.00
2022-12-31T08:51:01.410Z,100.00
2022-12-31T08:53:31.436Z,100.00
2022-12-31T08:56:09.135Z,100.00
2022-12-31T08:58:51.565Z,100.00
2022-12-31T09:01:26.396Z,100.00
2022-12-31T09:04:21.725Z,100.00
2022-12-31T09:06:58.978Z,100.00
2022-12-31T09:09:42.486Z,100.00
2022-12-31T09:12:24.082Z,100.00
2022-12-31T09:14:59.877Z,100.00
2022-12-31T09:17:45.396Z,100.00
2022-12-31T09:20:23.474Z,100.00
2022-12-31T09:22:54.043Z,100.00
2022-12-31T09:25:25.900Z,100.00
2022-12-31T09:28:06.422Z,100.00
2022-12-31T09:30:47.066Z,100.00
2022-12-31T09:33:32.430Z,100.00
2022-12-31T09:36:06.829Z,100.00
2022-12-31T09:38:45.272Z,100.00
2022-12-31T09:41:17.572Z,100.00
2022-12-31T09:44:39.538Z,100.00
2022-12-31T09:48:01.660Z,100.00
2022-12-31T09:50:52.036Z,100.00
2022-12-31T09:53:54.643Z,100.00
2022-12-31T09:56:30.758Z,100.00
2022-12-31T09:59:07.800Z,100.00
2022-12-31T10:01:56.024Z,100.00
2022-12-31T10:04:44.071Z,100.00
2022-12-31T10:07:34.059Z,100.00
2022-12-31T10:10:14.834Z,100.00
2022-12-31T10:13:30.317Z,100.00
2022-12-31T10:16:32.554Z,100.00
2022-12-31T10:19:17.873Z,100.00
2022-12-31T10:22:02.231Z,100.00
2022-12-31T10:24:54.685Z,100.00
2022-12-31T10:27:43.621Z,100.00
2022-12-31T10:30:18.742Z,100.00
2022-12-31T10:33:08.868Z,100.00
2022-12-31T10:35:45.059Z,100.00
2022-12-31T10:38:31.293Z,100.00
2022-12-31T10:42:03.658Z,100.00
2022-12-31T10:45:08.763Z,100.00
2022-12-31T10:48:39.016Z,100.00
2022-12-31T10:51:43.126Z,100.00
2022-12-31T10:54:39.720Z,100.00
2022-12-31T10:57:52.028Z,100.00
2022-12-31T11:00:21.937Z,100.00
2022-12-31T11:03:40.278Z,100.00
2022-12-31T11:07:13.279Z,100.00
2022-12-31T11:10:27.814Z,100.00
2022-12-31T11:13:43.380Z,100.00
2022-12-31T11:16:29.920Z,100.00
2022-12-31T11:19:06.348Z,100.00
2022-12-31T11:21:52.211Z,100.00
2022-12-31T11:24:37.410Z,100.00
2022-12-31T11:27:23.812Z,100.00
2022-12-31T11:30:07.590Z,100.00
2022-12-31T11:32:54.103Z,100.00
2022-12-31T11:35:38.769Z,100.00
2022-12-31T11:38:23.071Z,100.00
2022-12-31T11:41:02.116Z,100.00
2022-12-31T11:43:38.841Z,100.00
2022-12-31T11:46:48.544Z,100.00
2022-12-31T11:49:42.617Z,100.00
2022-12-31T11:52:48.264Z,100.00
2022-12-31T11:55:42.789Z,100.00
2022-12-31T11:58:16.820Z,100.00
2022-12-31T12:00:57.036Z,100.00
2022-12-31T12:03:26.552Z,100.00
2022-12-31T12:05:57.495Z,100.00
2022-12-31T12:08:27.986Z,100.00
2022-12-31T12:11:08.043Z,100.00
2022-12-31T12:13:36.803Z,100.00
2022-12-31T12:16:09.281Z,100.00
2022-12-31T12:18:44.066Z,100.00
2022-12-31T12:21:15.920Z,100.00
2022-12-31T12:23:56.387Z,100.00
2022-12-31T12:26:36.238Z,100.00
2022-12-31T12:29:12.575Z,100.00
2022-12-31T12:31:42.047Z,100.00
2022-12-31T12:34:26.622Z,100.00
2022-12-31T12:36:55.333Z,100.00
2022-12-31T12:39:29.475Z,100.00
2022-12-31T12:42:06.064Z,100.00
2022-12-31T12:44:35.223Z,100.00
2022-12-31T12:47:06.582Z,100.00
2022-12-31T12:49:42.681Z,100.00
2022-12-31T12:53:04.324Z,100.00
2022-12-31T12:55:48.122Z,100.00
2022-12-31T12:58:35.847Z,100.00
2022-12-31T13:01:14.737Z,100.00
2022-12-31T13:04:40.195Z,100.00
2022-12-31T13:07:23.307Z,99.81
2022-12-31T13:10:17.319Z,99.76
2022-12-31T13:13:23.887Z,99.42
2022-12-31T13:15:58.441Z,99.61
2022-12-31T13:18:46.092Z,99.28
2022-12-31T13:21:43.248Z,99.97
2022-12-31T13:24:28.749Z,99.76
2022-12-31T13:27:05.782Z,99.89
2022-12-31T13:29:36.883Z,100.00
2022-12-31T13:32:10.711Z,100.00
2022-12-31T13:34:45.836Z,100.00
2022-12-31T13:37:28.236Z,100.00
2022-12-31T13:40:04.407Z,100.00
2022-12-31T13:42:43.767Z,100.00
2022-12-31T13:45:18.146Z,100.00
2022-12-31T13:47:55.381Z,100.00
2022-12-31T13:50:31.019Z,100.00
2022-12-31T13:53:08.656Z,100.00
2022-12-31T13:55:43.770Z,100.00
2022-12-31T13:58:24.603Z,100.00
2022-12-31T14:01:04.650Z,100.00
2022-12-31T14:03:46.398Z,100.00
2022-12-31T14:06:26.976Z,100.00
2022-12-31T14:08:55.822Z,100.00
2022-12-31T14:11:45.556Z,100.00
2022-12-31T14:14:30.336Z,100.00
2022-12-31T14:17:06.860Z,100.00
2022-12-31T14:19:54.707Z,100.00
2022-12-31T14:22:36.189Z,100.00
2022-12-31T14:25:10.273Z,100.00
2022-12-31T14:27:43.507Z,100.00
2022-12-31T14:30:19.447Z,100.00
2022-12-31T14:33:30.459Z,100.00
2022-12-31T14:36:19.135Z,100.00
2022-12-31T14:39:09.374Z,100.00
2022-12-31T14:41:54.050Z,100.00
2022-12-31T14:44:42.424Z,100.00
2022-12-31T14:47:36.877Z,100.00
2022-12-31T14:50:13.267Z,100.00
2022-12-31T14:52:55.242Z,100.00
2022-12-31T14:55:27.679Z,100.00
2022-12-31T15:00:56.297Z,100.00
2022-12-31T15:03:34.085Z,100.00
2022-12-31T15:06:17.330Z,100.00
2022-12-31T15:09:07.899Z,100.00
2022-12-31T15:11:53.500Z,100.00
2022-12-31T15:14:54.486Z,100.00
2022-12-31T16:01:51.250Z,88.32
2022-12-31T16:04:40.007Z,86.83
2022-12-31T16:07:19.025Z,86.87
2022-12-31T16:10:19.022Z,86.67
2022-12-31T16:12:48.338Z,86.78
2022-12-31T16:15:28.905Z,86.42
2022-12-31T16:18:06.077Z,85.44
2022-12-31T16:20:42.147Z,85.82
2022-12-31T16:23:23.335Z,85.23
2022-12-31T16:25:57.856Z,84.86
2022-12-31T16:28:31.469Z,85.09
2022-12-31T16:31:09.023Z,85.19
2022-12-31T16:36:21.021Z,85.16
2022-12-31T16:39:23.861Z,84.93
2022-12-31T16:41:53.641Z,85.17
2022-12-31T16:44:31.110Z,84.56
2022-12-31T16:47:03.697Z,84.37
2022-12-31T16:49:34.713Z,84.42
2022-12-31T16:52:09.637Z,84.58
2022-12-31T16:54:41.886Z,85.10
2022-12-31T16:57:22.333Z,84.37
2022-12-31T16:59:56.278Z,83.84
2022-12-31T17:02:29.071Z,83.42
2022-12-31T17:04:57.956Z,83.07
2022-12-31T17:07:40.528Z,82.70
2022-12-31T17:10:22.946Z,82.94
2022-12-31T17:15:46.879Z,82.70
2022-12-31T17:18:21.874Z,82.33
2022-12-31T17:20:52.674Z,81.72
2022-12-31T17:23:28.522Z,80.76
2022-12-31T17:26:02.522Z,81.42
2022-12-31T17:28:43.219Z,80.46
2022-12-31T17:31:31.797Z,81.26
2022-12-31T17:34:26.167Z,80.54
2022-12-31T17:37:02.532Z,80.56
2022-12-31T17:39:46.934Z,79.40
2022-12-31T17:42:25.789Z,80.73
2022-12-31T17:44:59.661Z,79.38
2022-12-31T17:47:37.149Z,79.50
2022-12-31T17:50:21.340Z,79.18
2022-12-31T17:52:50.415Z,80.34
2022-12-31T17:55:21.238Z,79.56
2022-12-31T17:57:53.718Z,78.64
2022-12-31T18:00:26.870Z,78.82
2022-12-31T18:02:55.696Z,79.02
2022-12-31T18:05:26.482Z,77.91
2022-12-31T18:07:55.549Z,77.90
2022-12-31T18:10:27.551Z,77.12
2022-12-31T18:12:58.250Z,77.34
2022-12-31T18:15:27.237Z,76.75
2022-12-31T18:17:55.865Z,76.92
2022-12-31T18:20:25.472Z,77.34
2022-12-31T18:22:55.206Z,77.33
2022-12-31T18:25:26.025Z,76.80
2022-12-31T18:27:54.899Z,77.36
2022-12-31T18:30:23.641Z,76.57
2022-12-31T18:32:52.656Z,76.14
2022-12-31T18:38:17.021Z,75.13
2022-12-31T18:43:42.103Z,74.99
2022-12-31T18:46:13.555Z,73.93
2022-12-31T18:48:43.633Z,73.69
2022-12-31T18:51:15.628Z,73.77
2022-12-31T18:53:44.342Z,74.43
2022-12-31T18:56:18.007Z,73.98
2022-12-31T18:58:47.525Z,73.73
2022-12-31T19:01:30.096Z,72.71
2022-12-31T19:04:01.388Z,72.45
2022-12-31T19:06:31.144Z,72.82
2022-12-31T19:09:01.194Z,72.49
2022-12-31T19:11:32.318Z,71.54
2022-12-31T19:14:01.082Z,71.14
2022-12-31T19:16:29.863Z,70.85
2022-12-31T19:19:01.530Z,69.96
2022-12-31T19:21:32.539Z,69.80
2022-12-31T19:24:01.248Z,69.32
2022-12-31T19:26:31.988Z,68.66
2022-12-31T19:29:00.692Z,69.50
2022-12-31T19:31:29.370Z,68.84
2022-12-31T19:33:58.106Z,69.12
2022-12-31T19:36:26.808Z,68.03
2022-12-31T19:38:55.516Z,68.26
2022-12-31T19:41:24.344Z,68.26
2022-12-31T19:43:55.129Z,68.17
2022-12-31T19:46:24.634Z,68.60
2022-12-31T19:48:54.013Z,68.45
2022-12-31T19:51:23.507Z,68.18
2022-12-31T19:53:52.301Z,67.98
2022-12-31T19:56:22.403Z,68.71
2022-12-31T19:58:51.070Z,68.20
2022-12-31T20:01:25.165Z,68.11
2022-12-31T20:03:55.998Z,68.60
2022-12-31T20:06:24.661Z,68.27
2022-12-31T20:08:53.304Z,67.94
2022-12-31T20:11:25.305Z,67.80
2022-12-31T20:13:55.038Z,67.69
2022-12-31T20:16:29.297Z,67.01
2022-12-31T20:18:58.086Z,67.58
2022-12-31T20:21:29.872Z,67.89
2022-12-31T20:23:58.385Z,67.89
2022-12-31T20:26:27.525Z,67.62
2022-12-31T20:28:56.269Z,67.54
2022-12-31T20:31:27.826Z,67.88
2022-12-31T20:33:57.352Z,66.98
2022-12-31T20:36:26.905Z,67.66
2022-12-31T20:38:55.621Z,67.99
2022-12-31T20:41:25.646Z,67.31
2022-12-31T20:43:54.474Z,67.16
2022-12-31T20:46:28.044Z,67.32
2022-12-31T20:48:59.923Z,67.30
2022-12-31T20:51:30.165Z,67.93
2022-12-31T20:54:03.011Z,67.18
2022-12-31T20:56:34.334Z,67.54
2022-12-31T20:59:04.219Z,67.19
2022-12-31T21:01:55.416Z,67.27
2022-12-31T21:04:24.366Z,67.49
2022-12-31T21:06:53.777Z,67.61
2022-12-31T21:14:44.399Z,66.73
2022-12-31T21:19:35.111Z,66.87
2022-12-31T21:22:06.934Z,66.95
2022-12-31T21:24:35.502Z,66.87
2022-12-31T21:27:06.093Z,66.82
2022-12-31T21:30:01.928Z,67.08
2022-12-31T21:32:28.665Z,66.82
2022-12-31T21:35:39.678Z,67.06
2022-12-31T21:37:57.942Z,67.06
2022-12-31T21:40:29.023Z,66.84
2022-12-31T21:42:57.880Z,67.21
2022-12-31T21:45:26.962Z,66.74
2022-12-31T21:48:08.916Z,67.00
2022-12-31T21:50:39.375Z,66.85
2022-12-31T21:53:08.374Z,66.29
2022-12-31T21:55:52.998Z,66.41
2022-12-31T21:58:26.872Z,66.59
2022-12-31T22:01:10.901Z,66.69
2022-12-31T22:03:39.943Z,66.53
2022-12-31T22:06:33.479Z,66.33
2022-12-31T22:09:07.313Z,66.36
2022-12-31T22:11:38.000Z,65.85
2022-12-31T22:14:06.721Z,65.73
2022-12-31T22:16:35.398Z,65.71
2022-12-31T22:19:04.352Z,66.10
2022-12-31T22:21:35.097Z,65.37
2022-12-31T22:24:04.786Z,65.73
2022-12-31T22:26:33.675Z,65.31
2022-12-31T22:29:03.046Z,65.87
2022-12-31T22:31:31.969Z,65.10
2022-12-31T22:34:01.459Z,65.06
2022-12-31T22:36:30.303Z,64.92
2022-12-31T22:39:01.343Z,64.94
2022-12-31T22:41:30.526Z,64.63
2022-12-31T22:44:04.554Z,64.74
2022-12-31T22:46:35.453Z,64.57
2022-12-31T22:49:06.435Z,64.50
2022-12-31T22:51:57.299Z,64.46
2022-12-31T22:54:27.434Z,64.07
2022-12-31T22:56:56.312Z,64.94
2022-12-31T23:03:24.196Z,65.27
2022-12-31T23:05:57.882Z,64.76
2022-12-31T23:09:03.850Z,64.79
2022-12-31T23:15:05.944Z,64.11
2022-12-31T23:18:00.120Z,64.87
2022-12-31T23:20:41.897Z,64.48
2022-12-31T23:23:16.045Z,64.76
2022-12-31T23:25:47.615Z,64.87
2022-12-31T23:28:19.201Z,64.40
2022-12-31T23:30:50.896Z,64.87
2022-12-31T23:33:22.820Z,65.45
2022-12-31T23:35:51.781Z,65.11
2022-12-31T23:38:20.976Z,65.46
2022-12-31T23:40:49.685Z,65.34
2022-12-31T23:43:23.068Z,65.67
2022-12-31T23:45:54.829Z,66.24
2022-12-31T23:48:23.592Z,66.72
2022-12-31T23:50:54.393Z,66.22
2022-12-31T23:53:24.222Z,66.40
2022-12-31T23:55:54.168Z,66.57
2022-12-31T23:58:23.698Z,66.83
